sensor_id;sensor_type;location;lat;lon;timestamp;P1;durP1;ratioP1;P2;durP2;ratioP2
49023;SDS011;34839;-33.872;151.172;2022-10-16T00:02:12;5.32;;;0.85;;
49023;SDS011;34839;-33.872;151.172;2022-10-16T00:04:39;4.75;;;1.30;;
49023;SDS011;34839;-33.872;151.172;2022-10-16T00:07:07;5.82;;;0.98;;
49023;SDS011;34839;-33.872;151.172;2022-10-16T00:09:34;5.60;;;1.05;;
49023;SDS011;34839;-33.872;151.172;2022-10-16T00:12:01;6.72;;;1.02;;
49023;SDS011;34839;-33.872;151.172;2022-10-16T00:14:29;4.60;;;1.10;;
49023;SDS011;34839;-33.872;151.172;2022-10-16T00:16:57;4.43;;;0.95;;
49023;SDS011;34839;-33.872;151.172;2022-10-16T00:19:24;6.95;;;1.13;;
49023;SDS011;34839;-33.872;151.172;2022-10-16T00:21:51;5.03;;;1.00;;
49023;SDS011;34839;-33.872;151.172;2022-10-16T00:24:18;5.03;;;1.42;;
49023;SDS011;34839;-33.872;151.172;2022-10-16T00:26:46;8.52;;;6.55;;
49023;SDS011;34839;-33.872;151.172;2022-10-16T00:29:16;5.28;;;2.08;;
49023;SDS011;34839;-33.872;151.172;2022-10-16T00:31:43;8.80;;;1.70;;
49023;SDS011;34839;-33.872;151.172;2022-10-16T00:34:10;4.82;;;1.25;;
49023;SDS011;34839;-33.872;151.172;2022-10-16T00:36:38;5.22;;;1.33;;
49023;SDS011;34839;-33.872;151.172;2022-10-16T00:39:05;6.10;;;1.60;;
49023;SDS011;34839;-33.872;151.172;2022-10-16T00:41:32;7.10;;;1.23;;
49023;SDS011;34839;-33.872;151.172;2022-10-16T00:44:01;5.82;;;1.63;;
49023;SDS011;34839;-33.872;151.172;2022-10-16T00:46:38;7.43;;;1.17;;
49023;SDS011;34839;-33.872;151.172;2022-10-16T00:49:06;7.20;;;1.50;;
49023;SDS011;34839;-33.872;151.172;2022-10-16T00:51:36;5.47;;;1.20;;
49023;SDS011;34839;-33.872;151.172;2022-10-16T00:54:06;5.25;;;0.90;;
49023;SDS011;34839;-33.872;151.172;2022-10-16T00:56:33;5.50;;;0.90;;
49023;SDS011;34839;-33.872;151.172;2022-10-16T00:59:04;7.88;;;1.10;;
49023;SDS011;34839;-33.872;151.172;2022-10-16T01:01:33;4.72;;;1.13;;
49023;SDS011;34839;-33.872;151.172;2022-10-16T01:04:00;6.03;;;1.13;;
49023;SDS011;34839;-33.872;151.172;2022-10-16T01:06:31;8.23;;;1.52;;
49023;SDS011;34839;-33.872;151.172;2022-10-16T01:12:15;6.95;;;1.13;;
49023;SDS011;34839;-33.872;151.172;2022-10-16T01:17:44;3.67;;;1.15;;
49023;SDS011;34839;-33.872;151.172;2022-10-16T01:20:14;9.27;;;1.33;;
49023;SDS011;34839;-33.872;151.172;2022-10-16T01:25:20;6.00;;;1.25;;
49023;SDS011;34839;-33.872;151.172;2022-10-16T01:27:48;4.60;;;1.10;;
49023;SDS011;34839;-33.872;151.172;2022-10-16T01:30:29;5.95;;;1.30;;
49023;SDS011;34839;-33.872;151.172;2022-10-16T01:35:43;6.88;;;1.80;;
49023;SDS011;34839;-33.872;151.172;2022-10-16T01:38:34;2.80;;;0.90;;
49023;SDS011;34839;-33.872;151.172;2022-10-16T01:41:01;3.75;;;1.10;;
49023;SDS011;34839;-33.872;151.172;2022-10-16T01:43:32;5.90;;;1.00;;
49023;SDS011;34839;-33.872;151.172;2022-10-16T01:46:00;4.97;;;1.00;;
49023;SDS011;34839;-33.872;151.172;2022-10-16T01:48:28;3.67;;;0.77;;
49023;SDS011;34839;-33.872;151.172;2022-10-16T01:51:06;3.83;;;0.90;;
49023;SDS011;34839;-33.872;151.172;2022-10-16T01:53:34;5.03;;;1.02;;
49023;SDS011;34839;-33.872;151.172;2022-10-16T01:56:02;6.95;;;1.65;;
49023;SDS011;34839;-33.872;151.172;2022-10-16T01:58:30;5.93;;;1.15;;
49023;SDS011;34839;-33.872;151.172;2022-10-16T02:01:00;3.70;;;1.02;;
49023;SDS011;34839;-33.872;151.172;2022-10-16T02:03:29;7.93;;;1.40;;
49023;SDS011;34839;-33.872;151.172;2022-10-16T02:05:56;5.07;;;1.20;;
49023;SDS011;34839;-33.872;151.172;2022-10-16T02:08:25;6.60;;;1.30;;
49023;SDS011;34839;-33.872;151.172;2022-10-16T02:10:57;7.50;;;1.48;;
49023;SDS011;34839;-33.872;151.172;2022-10-16T02:13:30;6.07;;;1.23;;
49023;SDS011;34839;-33.872;151.172;2022-10-16T02:15:58;7.97;;;1.30;;
49023;SDS011;34839;-33.872;151.172;2022-10-16T02:18:25;5.93;;;0.90;;
49023;SDS011;34839;-33.872;151.172;2022-10-16T02:23:29;5.50;;;1.20;;
49023;SDS011;34839;-33.872;151.172;2022-10-16T02:25:59;4.20;;;1.17;;
49023;SDS011;34839;-33.872;151.172;2022-10-16T02:28:35;4.05;;;0.90;;
49023;SDS011;34839;-33.872;151.172;2022-10-16T02:31:07;4.53;;;1.02;;
49023;SDS011;34839;-33.872;151.172;2022-10-16T02:33:35;4.38;;;0.98;;
49023;SDS011;34839;-33.872;151.172;2022-10-16T02:36:04;6.40;;;1.40;;
49023;SDS011;34839;-33.872;151.172;2022-10-16T02:38:32;6.60;;;1.27;;
49023;SDS011;34839;-33.872;151.172;2022-10-16T02:41:00;4.32;;;1.00;;
49023;SDS011;34839;-33.872;151.172;2022-10-16T02:43:28;6.97;;;1.42;;
49023;SDS011;34839;-33.872;151.172;2022-10-16T02:45:55;5.80;;;1.20;;
49023;SDS011;34839;-33.872;151.172;2022-10-16T02:48:23;6.13;;;1.27;;
49023;SDS011;34839;-33.872;151.172;2022-10-16T02:50:50;7.68;;;1.33;;
49023;SDS011;34839;-33.872;151.172;2022-10-16T02:53:17;6.95;;;1.20;;
49023;SDS011;34839;-33.872;151.172;2022-10-16T02:55:44;8.73;;;1.42;;
49023;SDS011;34839;-33.872;151.172;2022-10-16T02:58:11;5.22;;;0.82;;
49023;SDS011;34839;-33.872;151.172;2022-10-16T03:00:39;4.40;;;0.80;;
49023;SDS011;34839;-33.872;151.172;2022-10-16T03:03:06;3.47;;;0.80;;
49023;SDS011;34839;-33.872;151.172;2022-10-16T03:05:33;7.05;;;1.30;;
49023;SDS011;34839;-33.872;151.172;2022-10-16T03:08:01;4.82;;;1.08;;
49023;SDS011;34839;-33.872;151.172;2022-10-16T03:10:28;6.68;;;1.13;;
49023;SDS011;34839;-33.872;151.172;2022-10-16T03:12:56;6.78;;;1.10;;
49023;SDS011;34839;-33.872;151.172;2022-10-16T03:15:23;5.38;;;1.17;;
49023;SDS011;34839;-33.872;151.172;2022-10-16T03:17:51;4.95;;;0.95;;
49023;SDS011;34839;-33.872;151.172;2022-10-16T03:20:18;4.53;;;1.05;;
49023;SDS011;34839;-33.872;151.172;2022-10-16T03:22:45;5.00;;;1.25;;
49023;SDS011;34839;-33.872;151.172;2022-10-16T03:25:13;6.68;;;1.30;;
49023;SDS011;34839;-33.872;151.172;2022-10-16T03:27:40;7.78;;;1.50;;
49023;SDS011;34839;-33.872;151.172;2022-10-16T03:30:07;5.70;;;1.00;;
49023;SDS011;34839;-33.872;151.172;2022-10-16T03:32:35;7.13;;;1.10;;
49023;SDS011;34839;-33.872;151.172;2022-10-16T03:35:02;6.72;;;1.10;;
49023;SDS011;34839;-33.872;151.172;2022-10-16T03:37:29;6.50;;;1.17;;
49023;SDS011;34839;-33.872;151.172;2022-10-16T03:39:57;9.70;;;1.13;;
49023;SDS011;34839;-33.872;151.172;2022-10-16T03:42:24;5.50;;;1.42;;
49023;SDS011;34839;-33.872;151.172;2022-10-16T03:44:52;6.80;;;1.38;;
49023;SDS011;34839;-33.872;151.172;2022-10-16T03:47:19;6.45;;;1.40;;
49023;SDS011;34839;-33.872;151.172;2022-10-16T03:49:49;5.90;;;1.20;;
49023;SDS011;34839;-33.872;151.172;2022-10-16T03:52:16;4.22;;;1.02;;
49023;SDS011;34839;-33.872;151.172;2022-10-16T03:54:43;8.50;;;1.20;;
49023;SDS011;34839;-33.872;151.172;2022-10-16T03:57:11;6.20;;;1.00;;
49023;SDS011;34839;-33.872;151.172;2022-10-16T03:59:38;5.57;;;1.20;;
49023;SDS011;34839;-33.872;151.172;2022-10-16T04:02:05;4.55;;;1.08;;
49023;SDS011;34839;-33.872;151.172;2022-10-16T04:04:32;8.55;;;1.52;;
49023;SDS011;34839;-33.872;151.172;2022-10-16T04:07:00;3.85;;;1.05;;
49023;SDS011;34839;-33.872;151.172;2022-10-16T04:09:27;7.13;;;1.30;;
49023;SDS011;34839;-33.872;151.172;2022-10-16T04:11:54;6.03;;;1.23;;
49023;SDS011;34839;-33.872;151.172;2022-10-16T04:14:21;7.82;;;1.60;;
49023;SDS011;34839;-33.872;151.172;2022-10-16T04:16:49;4.85;;;0.90;;
49023;SDS011;34839;-33.872;151.172;2022-10-16T04:19:16;6.25;;;1.60;;
49023;SDS011;34839;-33.872;151.172;2022-10-16T04:21:43;6.63;;;0.93;;
49023;SDS011;34839;-33.872;151.172;2022-10-16T04:24:11;6.32;;;1.45;;
49023;SDS011;34839;-33.872;151.172;2022-10-16T04:26:38;7.35;;;1.17;;
49023;SDS011;34839;-33.872;151.172;2022-10-16T04:29:05;5.78;;;1.33;;
49023;SDS011;34839;-33.872;151.172;2022-10-16T04:31:33;6.57;;;1.33;;
49023;SDS011;34839;-33.872;151.172;2022-10-16T04:34:00;5.80;;;1.45;;
49023;SDS011;34839;-33.872;151.172;2022-10-16T04:36:27;6.45;;;1.38;;
49023;SDS011;34839;-33.872;151.172;2022-10-16T04:38:55;6.43;;;1.20;;
49023;SDS011;34839;-33.872;151.172;2022-10-16T04:41:22;6.97;;;1.13;;
49023;SDS011;34839;-33.872;151.172;2022-10-16T04:43:49;7.72;;;1.17;;
49023;SDS011;34839;-33.872;151.172;2022-10-16T04:46:16;5.05;;;1.50;;
49023;SDS011;34839;-33.872;151.172;2022-10-16T04:48:45;5.20;;;1.30;;
49023;SDS011;34839;-33.872;151.172;2022-10-16T04:51:12;4.57;;;0.88;;
49023;SDS011;34839;-33.872;151.172;2022-10-16T04:53:40;5.93;;;1.52;;
49023;SDS011;34839;-33.872;151.172;2022-10-16T04:56:07;7.32;;;1.10;;
49023;SDS011;34839;-33.872;151.172;2022-10-16T04:58:34;8.27;;;1.13;;
49023;SDS011;34839;-33.872;151.172;2022-10-16T05:01:01;4.68;;;1.23;;
49023;SDS011;34839;-33.872;151.172;2022-10-16T05:03:28;7.25;;;1.38;;
49023;SDS011;34839;-33.872;151.172;2022-10-16T05:05:56;6.88;;;1.17;;
49023;SDS011;34839;-33.872;151.172;2022-10-16T05:08:23;6.97;;;1.98;;
49023;SDS011;34839;-33.872;151.172;2022-10-16T05:10:50;4.82;;;0.93;;
49023;SDS011;34839;-33.872;151.172;2022-10-16T05:13:17;7.30;;;1.33;;
49023;SDS011;34839;-33.872;151.172;2022-10-16T05:15:48;8.95;;;1.40;;
49023;SDS011;34839;-33.872;151.172;2022-10-16T05:18:15;10.35;;;1.40;;
49023;SDS011;34839;-33.872;151.172;2022-10-16T05:20:42;7.63;;;1.13;;
49023;SDS011;34839;-33.872;151.172;2022-10-16T05:23:10;7.43;;;1.42;;
49023;SDS011;34839;-33.872;151.172;2022-10-16T05:25:37;7.45;;;1.23;;
49023;SDS011;34839;-33.872;151.172;2022-10-16T05:28:04;6.95;;;1.10;;
49023;SDS011;34839;-33.872;151.172;2022-10-16T05:30:31;5.03;;;1.17;;
49023;SDS011;34839;-33.872;151.172;2022-10-16T05:32:59;8.27;;;0.90;;
49023;SDS011;34839;-33.872;151.172;2022-10-16T05:35:26;13.30;;;1.42;;
49023;SDS011;34839;-33.872;151.172;2022-10-16T05:37:53;7.32;;;1.20;;
49023;SDS011;34839;-33.872;151.172;2022-10-16T05:40:20;6.93;;;1.20;;
49023;SDS011;34839;-33.872;151.172;2022-10-16T05:42:49;6.78;;;1.10;;
49023;SDS011;34839;-33.872;151.172;2022-10-16T05:45:16;7.82;;;1.45;;
49023;SDS011;34839;-33.872;151.172;2022-10-16T05:47:43;6.68;;;1.60;;
49023;SDS011;34839;-33.872;151.172;2022-10-16T05:50:10;6.32;;;1.08;;
49023;SDS011;34839;-33.872;151.172;2022-10-16T05:52:37;5.63;;;1.30;;
49023;SDS011;34839;-33.872;151.172;2022-10-16T05:55:05;3.83;;;1.55;;
49023;SDS011;34839;-33.872;151.172;2022-10-16T05:57:32;8.32;;;1.27;;
49023;SDS011;34839;-33.872;151.172;2022-10-16T05:59:59;6.75;;;1.35;;
49023;SDS011;34839;-33.872;151.172;2022-10-16T06:02:27;7.25;;;1.13;;
49023;SDS011;34839;-33.872;151.172;2022-10-16T06:04:54;9.45;;;1.38;;
49023;SDS011;34839;-33.872;151.172;2022-10-16T06:07:22;8.38;;;1.17;;
49023;SDS011;34839;-33.872;151.172;2022-10-16T06:09:50;4.18;;;0.82;;
49023;SDS011;34839;-33.872;151.172;2022-10-16T06:12:17;7.60;;;1.52;;
49023;SDS011;34839;-33.872;151.172;2022-10-16T06:14:45;3.17;;;0.93;;
49023;SDS011;34839;-33.872;151.172;2022-10-16T06:17:13;8.30;;;1.73;;
49023;SDS011;34839;-33.872;151.172;2022-10-16T06:19:40;7.72;;;0.93;;
49023;SDS011;34839;-33.872;151.172;2022-10-16T06:22:07;4.60;;;1.10;;
49023;SDS011;34839;-33.872;151.172;2022-10-16T06:24:34;5.13;;;1.02;;
49023;SDS011;34839;-33.872;151.172;2022-10-16T06:27:03;6.32;;;1.30;;
49023;SDS011;34839;-33.872;151.172;2022-10-16T06:29:30;5.65;;;0.93;;
49023;SDS011;34839;-33.872;151.172;2022-10-16T06:31:58;8.77;;;1.80;;
49023;SDS011;34839;-33.872;151.172;2022-10-16T06:34:25;5.57;;;1.15;;
49023;SDS011;34839;-33.872;151.172;2022-10-16T06:36:52;6.85;;;1.65;;
49023;SDS011;34839;-33.872;151.172;2022-10-16T06:39:19;4.38;;;0.95;;
49023;SDS011;34839;-33.872;151.172;2022-10-16T06:41:47;6.07;;;1.40;;
49023;SDS011;34839;-33.872;151.172;2022-10-16T06:44:14;9.88;;;1.75;;
49023;SDS011;34839;-33.872;151.172;2022-10-16T06:46:41;9.35;;;1.60;;
49023;SDS011;34839;-33.872;151.172;2022-10-16T06:49:09;6.60;;;1.30;;
49023;SDS011;34839;-33.872;151.172;2022-10-16T06:51:36;5.28;;;1.33;;
49023;SDS011;34839;-33.872;151.172;2022-10-16T06:54:07;7.60;;;1.63;;
49023;SDS011;34839;-33.872;151.172;2022-10-16T06:56:35;6.88;;;1.55;;
49023;SDS011;34839;-33.872;151.172;2022-10-16T06:59:03;6.85;;;1.40;;
49023;SDS011;34839;-33.872;151.172;2022-10-16T07:01:31;7.55;;;1.48;;
49023;SDS011;34839;-33.872;151.172;2022-10-16T07:03:58;6.60;;;1.67;;
49023;SDS011;34839;-33.872;151.172;2022-10-16T07:06:26;7.18;;;1.23;;
49023;SDS011;34839;-33.872;151.172;2022-10-16T07:08:53;8.73;;;1.85;;
49023;SDS011;34839;-33.872;151.172;2022-10-16T07:11:21;11.38;;;1.98;;
49023;SDS011;34839;-33.872;151.172;2022-10-16T07:13:49;7.72;;;1.60;;
49023;SDS011;34839;-33.872;151.172;2022-10-16T07:16:18;8.95;;;2.42;;
49023;SDS011;34839;-33.872;151.172;2022-10-16T07:18:45;10.05;;;1.38;;
49023;SDS011;34839;-33.872;151.172;2022-10-16T07:21:18;8.35;;;2.00;;
49023;SDS011;34839;-33.872;151.172;2022-10-16T07:23:50;7.35;;;1.08;;
49023;SDS011;34839;-33.872;151.172;2022-10-16T07:26:17;8.38;;;1.70;;
49023;SDS011;34839;-33.872;151.172;2022-10-16T07:28:44;6.07;;;1.27;;
49023;SDS011;34839;-33.872;151.172;2022-10-16T07:31:12;6.30;;;1.27;;
49023;SDS011;34839;-33.872;151.172;2022-10-16T07:33:40;9.63;;;1.50;;
49023;SDS011;34839;-33.872;151.172;2022-10-16T07:36:10;5.88;;;1.30;;
49023;SDS011;34839;-33.872;151.172;2022-10-16T07:38:37;10.02;;;1.42;;
49023;SDS011;34839;-33.872;151.172;2022-10-16T07:41:12;6.75;;;1.30;;
49023;SDS011;34839;-33.872;151.172;2022-10-16T07:43:40;11.30;;;1.58;;
49023;SDS011;34839;-33.872;151.172;2022-10-16T07:46:07;5.00;;;1.00;;
49023;SDS011;34839;-33.872;151.172;2022-10-16T07:48:34;9.05;;;1.30;;
49023;SDS011;34839;-33.872;151.172;2022-10-16T07:51:03;7.22;;;1.45;;
49023;SDS011;34839;-33.872;151.172;2022-10-16T07:53:31;6.53;;;1.38;;
49023;SDS011;34839;-33.872;151.172;2022-10-16T07:55:58;6.05;;;1.38;;
49023;SDS011;34839;-33.872;151.172;2022-10-16T07:58:26;6.78;;;1.40;;
49023;SDS011;34839;-33.872;151.172;2022-10-16T08:00:54;9.82;;;1.35;;
49023;SDS011;34839;-33.872;151.172;2022-10-16T08:03:22;7.00;;;0.98;;
49023;SDS011;34839;-33.872;151.172;2022-10-16T08:05:52;8.45;;;1.70;;
49023;SDS011;34839;-33.872;151.172;2022-10-16T08:08:19;4.75;;;1.45;;
49023;SDS011;34839;-33.872;151.172;2022-10-16T08:10:47;7.35;;;1.58;;
49023;SDS011;34839;-33.872;151.172;2022-10-16T08:13:14;5.60;;;1.15;;
49023;SDS011;34839;-33.872;151.172;2022-10-16T08:15:42;4.45;;;1.13;;
49023;SDS011;34839;-33.872;151.172;2022-10-16T08:18:10;7.70;;;1.55;;
49023;SDS011;34839;-33.872;151.172;2022-10-16T08:20:38;10.85;;;1.70;;
49023;SDS011;34839;-33.872;151.172;2022-10-16T08:23:06;6.45;;;1.90;;
49023;SDS011;34839;-33.872;151.172;2022-10-16T08:25:36;7.25;;;1.30;;
49023;SDS011;34839;-33.872;151.172;2022-10-16T08:28:04;7.60;;;1.77;;
49023;SDS011;34839;-33.872;151.172;2022-10-16T08:30:32;8.70;;;1.45;;
49023;SDS011;34839;-33.872;151.172;2022-10-16T08:32:59;7.45;;;1.75;;
49023;SDS011;34839;-33.872;151.172;2022-10-16T08:35:27;6.13;;;1.70;;
49023;SDS011;34839;-33.872;151.172;2022-10-16T08:37:54;6.85;;;1.70;;
49023;SDS011;34839;-33.872;151.172;2022-10-16T08:40:26;6.32;;;1.30;;
49023;SDS011;34839;-33.872;151.172;2022-10-16T08:48:34;6.47;;;1.85;;
49023;SDS011;34839;-33.872;151.172;2022-10-16T08:51:02;5.75;;;1.42;;
49023;SDS011;34839;-33.872;151.172;2022-10-16T08:53:35;7.07;;;1.25;;
49023;SDS011;34839;-33.872;151.172;2022-10-16T08:56:03;6.40;;;1.10;;
49023;SDS011;34839;-33.872;151.172;2022-10-16T08:58:31;5.68;;;1.42;;
49023;SDS011;34839;-33.872;151.172;2022-10-16T09:01:03;5.40;;;1.23;;
49023;SDS011;34839;-33.872;151.172;2022-10-16T09:11:11;6.10;;;1.50;;
49023;SDS011;34839;-33.872;151.172;2022-10-16T09:13:56;7.75;;;1.88;;
49023;SDS011;34839;-33.872;151.172;2022-10-16T09:16:30;9.45;;;1.50;;
49023;SDS011;34839;-33.872;151.172;2022-10-16T09:19:00;8.20;;;1.50;;
49023;SDS011;34839;-33.872;151.172;2022-10-16T09:21:33;6.78;;;1.27;;
49023;SDS011;34839;-33.872;151.172;2022-10-16T09:24:13;7.18;;;1.50;;
49023;SDS011;34839;-33.872;151.172;2022-10-16T09:26:42;10.40;;;1.80;;
49023;SDS011;34839;-33.872;151.172;2022-10-16T09:29:19;5.18;;;0.95;;
49023;SDS011;34839;-33.872;151.172;2022-10-16T09:31:47;7.50;;;1.42;;
49023;SDS011;34839;-33.872;151.172;2022-10-16T09:34:24;4.68;;;1.10;;
49023;SDS011;34839;-33.872;151.172;2022-10-16T09:36:52;6.70;;;1.25;;
49023;SDS011;34839;-33.872;151.172;2022-10-16T09:39:19;5.57;;;1.42;;
49023;SDS011;34839;-33.872;151.172;2022-10-16T09:41:47;8.60;;;1.48;;
49023;SDS011;34839;-33.872;151.172;2022-10-16T09:44:23;6.28;;;1.50;;
49023;SDS011;34839;-33.872;151.172;2022-10-16T09:47:35;7.18;;;1.13;;
49023;SDS011;34839;-33.872;151.172;2022-10-16T09:49:59;7.57;;;1.33;;
49023;SDS011;34839;-33.872;151.172;2022-10-16T09:52:32;7.78;;;1.40;;
49023;SDS011;34839;-33.872;151.172;2022-10-16T09:55:09;7.50;;;1.20;;
49023;SDS011;34839;-33.872;151.172;2022-10-16T09:57:49;4.93;;;1.20;;
49023;SDS011;34839;-33.872;151.172;2022-10-16T10:00:16;5.82;;;1.27;;
49023;SDS011;34839;-33.872;151.172;2022-10-16T10:02:44;4.93;;;1.35;;
49023;SDS011;34839;-33.872;151.172;2022-10-16T10:05:22;7.95;;;1.48;;
49023;SDS011;34839;-33.872;151.172;2022-10-16T10:08:12;11.73;;;1.17;;
49023;SDS011;34839;-33.872;151.172;2022-10-16T10:10:41;11.07;;;1.30;;
49023;SDS011;34839;-33.872;151.172;2022-10-16T10:13:24;9.82;;;1.42;;
49023;SDS011;34839;-33.872;151.172;2022-10-16T10:15:52;7.35;;;1.70;;
49023;SDS011;34839;-33.872;151.172;2022-10-16T10:18:21;10.55;;;1.58;;
49023;SDS011;34839;-33.872;151.172;2022-10-16T10:20:59;8.82;;;2.20;;
49023;SDS011;34839;-33.872;151.172;2022-10-16T10:23:28;4.72;;;1.42;;
49023;SDS011;34839;-33.872;151.172;2022-10-16T10:42:06;8.57;;;1.45;;
49023;SDS011;34839;-33.872;151.172;2022-10-16T10:47:27;14.82;;;1.80;;
49023;SDS011;34839;-33.872;151.172;2022-10-16T10:50:12;6.90;;;1.60;;
49023;SDS011;34839;-33.872;151.172;2022-10-16T11:05:50;14.85;;;2.33;;
49023;SDS011;34839;-33.872;151.172;2022-10-16T11:08:20;15.48;;;2.15;;
49023;SDS011;34839;-33.872;151.172;2022-10-16T11:13:48;16.45;;;2.40;;
49023;SDS011;34839;-33.872;151.172;2022-10-16T11:16:39;17.20;;;2.65;;
49023;SDS011;34839;-33.872;151.172;2022-10-16T11:21:39;11.23;;;2.25;;
49023;SDS011;34839;-33.872;151.172;2022-10-16T11:24:31;12.80;;;2.10;;
49023;SDS011;34839;-33.872;151.172;2022-10-16T11:27:03;18.40;;;3.20;;
49023;SDS011;34839;-33.872;151.172;2022-10-16T11:29:31;9.90;;;2.05;;
49023;SDS011;34839;-33.872;151.172;2022-10-16T11:32:06;16.40;;;2.35;;
49023;SDS011;34839;-33.872;151.172;2022-10-16T11:34:44;10.93;;;2.15;;
49023;SDS011;34839;-33.872;151.172;2022-10-16T11:37:12;13.52;;;2.35;;
49023;SDS011;34839;-33.872;151.172;2022-10-16T11:39:41;12.20;;;1.92;;
49023;SDS011;34839;-33.872;151.172;2022-10-16T11:42:21;12.27;;;2.40;;
49023;SDS011;34839;-33.872;151.172;2022-10-16T11:50:05;18.17;;;2.78;;
49023;SDS011;34839;-33.872;151.172;2022-10-16T11:55:14;23.00;;;2.65;;
49023;SDS011;34839;-33.872;151.172;2022-10-16T11:57:44;12.75;;;2.20;;
49023;SDS011;34839;-33.872;151.172;2022-10-16T12:05:28;14.90;;;2.83;;
49023;SDS011;34839;-33.872;151.172;2022-10-16T12:08:12;14.45;;;2.97;;
49023;SDS011;34839;-33.872;151.172;2022-10-16T12:10:41;19.25;;;3.33;;
49023;SDS011;34839;-33.872;151.172;2022-10-16T12:18:41;14.40;;;2.65;;
49023;SDS011;34839;-33.872;151.172;2022-10-16T12:21:09;18.60;;;2.80;;
49023;SDS011;34839;-33.872;151.172;2022-10-16T12:23:46;16.80;;;3.03;;
49023;SDS011;34839;-33.872;151.172;2022-10-16T12:26:14;11.50;;;2.10;;
49023;SDS011;34839;-33.872;151.172;2022-10-16T12:28:50;12.88;;;2.35;;
49023;SDS011;34839;-33.872;151.172;2022-10-16T12:31:17;20.02;;;2.63;;
49023;SDS011;34839;-33.872;151.172;2022-10-16T12:34:03;9.55;;;2.25;;
49023;SDS011;34839;-33.872;151.172;2022-10-16T12:36:32;14.40;;;2.67;;
49023;SDS011;34839;-33.872;151.172;2022-10-16T12:39:00;16.30;;;2.63;;
49023;SDS011;34839;-33.872;151.172;2022-10-16T12:41:29;11.23;;;2.53;;
49023;SDS011;34839;-33.872;151.172;2022-10-16T12:43:56;12.05;;;1.95;;
49023;SDS011;34839;-33.872;151.172;2022-10-16T12:46:35;12.80;;;2.25;;
49023;SDS011;34839;-33.872;151.172;2022-10-16T12:51:39;12.32;;;2.67;;
49023;SDS011;34839;-33.872;151.172;2022-10-16T12:54:17;15.40;;;2.38;;
49023;SDS011;34839;-33.872;151.172;2022-10-16T12:59:42;23.90;;;2.95;;
49023;SDS011;34839;-33.872;151.172;2022-10-16T13:02:36;13.65;;;2.63;;
49023;SDS011;34839;-33.872;151.172;2022-10-16T13:07:56;14.07;;;2.03;;
49023;SDS011;34839;-33.872;151.172;2022-10-16T13:10:36;13.32;;;2.20;;
49023;SDS011;34839;-33.872;151.172;2022-10-16T13:13:09;12.48;;;2.40;;
49023;SDS011;34839;-33.872;151.172;2022-10-16T13:28:30;11.95;;;2.63;;
49023;SDS011;34839;-33.872;151.172;2022-10-16T13:31:00;13.65;;;1.98;;
49023;SDS011;34839;-33.872;151.172;2022-10-16T13:33:38;17.25;;;1.65;;
49023;SDS011;34839;-33.872;151.172;2022-10-16T13:36:17;11.70;;;2.17;;
49023;SDS011;34839;-33.872;151.172;2022-10-16T13:38:46;13.25;;;2.30;;
49023;SDS011;34839;-33.872;151.172;2022-10-16T13:41:15;13.10;;;2.63;;
49023;SDS011;34839;-33.872;151.172;2022-10-16T13:46:16;14.60;;;2.42;;
49023;SDS011;34839;-33.872;151.172;2022-10-16T13:48:44;15.20;;;2.10;;
49023;SDS011;34839;-33.872;151.172;2022-10-16T13:51:18;10.98;;;2.70;;
49023;SDS011;34839;-33.872;151.172;2022-10-16T13:53:45;16.65;;;2.65;;
49023;SDS011;34839;-33.872;151.172;2022-10-16T13:56:14;10.98;;;2.00;;
49023;SDS011;34839;-33.872;151.172;2022-10-16T13:58:42;10.48;;;2.30;;
49023;SDS011;34839;-33.872;151.172;2022-10-16T14:01:20;12.52;;;2.17;;
49023;SDS011;34839;-33.872;151.172;2022-10-16T14:03:48;17.83;;;2.40;;
49023;SDS011;34839;-33.872;151.172;2022-10-16T14:06:16;12.80;;;2.40;;
49023;SDS011;34839;-33.872;151.172;2022-10-16T14:08:48;11.90;;;2.00;;
49023;SDS011;34839;-33.872;151.172;2022-10-16T14:11:20;14.32;;;2.58;;
49023;SDS011;34839;-33.872;151.172;2022-10-16T14:13:49;14.10;;;2.10;;
49023;SDS011;34839;-33.872;151.172;2022-10-16T14:16:21;8.50;;;2.13;;
49023;SDS011;34839;-33.872;151.172;2022-10-16T14:19:02;16.10;;;3.10;;
49023;SDS011;34839;-33.872;151.172;2022-10-16T14:21:35;11.88;;;1.85;;
49023;SDS011;34839;-33.872;151.172;2022-10-16T14:24:10;14.35;;;1.83;;
49023;SDS011;34839;-33.872;151.172;2022-10-16T14:26:42;12.50;;;2.08;;
49023;SDS011;34839;-33.872;151.172;2022-10-16T14:29:18;11.68;;;2.17;;
49023;SDS011;34839;-33.872;151.172;2022-10-16T14:31:59;14.77;;;2.58;;
49023;SDS011;34839;-33.872;151.172;2022-10-16T14:34:28;10.25;;;1.90;;
49023;SDS011;34839;-33.872;151.172;2022-10-16T14:36:58;17.08;;;2.40;;
49023;SDS011;34839;-33.872;151.172;2022-10-16T14:39:27;10.20;;;2.35;;
49023;SDS011;34839;-33.872;151.172;2022-10-16T14:41:55;12.07;;;2.13;;
49023;SDS011;34839;-33.872;151.172;2022-10-16T14:44:26;12.50;;;2.20;;
49023;SDS011;34839;-33.872;151.172;2022-10-16T14:46:55;12.52;;;2.38;;
49023;SDS011;34839;-33.872;151.172;2022-10-16T14:49:22;12.10;;;1.95;;
49023;SDS011;34839;-33.872;151.172;2022-10-16T14:51:50;10.80;;;2.08;;
49023;SDS011;34839;-33.872;151.172;2022-10-16T14:54:18;14.75;;;2.10;;
49023;SDS011;34839;-33.872;151.172;2022-10-16T14:59:55;15.45;;;1.55;;
49023;SDS011;34839;-33.872;151.172;2022-10-16T15:02:45;13.32;;;1.85;;
49023;SDS011;34839;-33.872;151.172;2022-10-16T15:04:54;12.00;;;2.00;;
49023;SDS011;34839;-33.872;151.172;2022-10-16T15:07:21;15.10;;;2.45;;
49023;SDS011;34839;-33.872;151.172;2022-10-16T15:09:48;11.75;;;1.83;;
49023;SDS011;34839;-33.872;151.172;2022-10-16T15:12:16;15.43;;;2.22;;
49023;SDS011;34839;-33.872;151.172;2022-10-16T15:14:43;15.70;;;2.35;;
49023;SDS011;34839;-33.872;151.172;2022-10-16T15:17:11;12.10;;;1.40;;
49023;SDS011;34839;-33.872;151.172;2022-10-16T15:19:38;10.27;;;1.58;;
49023;SDS011;34839;-33.872;151.172;2022-10-16T15:22:05;9.82;;;1.85;;
49023;SDS011;34839;-33.872;151.172;2022-10-16T15:24:33;12.38;;;1.65;;
49023;SDS011;34839;-33.872;151.172;2022-10-16T15:27:00;19.20;;;2.92;;
49023;SDS011;34839;-33.872;151.172;2022-10-16T15:29:27;21.58;;;3.30;;
49023;SDS011;34839;-33.872;151.172;2022-10-16T15:31:54;15.40;;;2.92;;
49023;SDS011;34839;-33.872;151.172;2022-10-16T15:34:22;14.98;;;2.83;;
49023;SDS011;34839;-33.872;151.172;2022-10-16T15:36:49;16.00;;;3.00;;
49023;SDS011;34839;-33.872;151.172;2022-10-16T15:39:17;14.32;;;2.20;;
49023;SDS011;34839;-33.872;151.172;2022-10-16T15:41:45;12.82;;;3.08;;
49023;SDS011;34839;-33.872;151.172;2022-10-16T15:44:19;15.30;;;3.13;;
49023;SDS011;34839;-33.872;151.172;2022-10-16T15:46:48;14.07;;;2.50;;
49023;SDS011;34839;-33.872;151.172;2022-10-16T15:49:16;15.43;;;3.03;;
49023;SDS011;34839;-33.872;151.172;2022-10-16T15:51:43;16.60;;;2.63;;
49023;SDS011;34839;-33.872;151.172;2022-10-16T15:54:11;13.77;;;1.98;;
49023;SDS011;34839;-33.872;151.172;2022-10-16T15:56:38;15.60;;;2.25;;
49023;SDS011;34839;-33.872;151.172;2022-10-16T15:59:06;12.88;;;1.90;;
49023;SDS011;34839;-33.872;151.172;2022-10-16T16:01:34;14.55;;;2.45;;
49023;SDS011;34839;-33.872;151.172;2022-10-16T16:04:01;15.43;;;2.55;;
49023;SDS011;34839;-33.872;151.172;2022-10-16T16:06:30;20.50;;;3.67;;
49023;SDS011;34839;-33.872;151.172;2022-10-16T16:08:58;23.20;;;3.38;;
49023;SDS011;34839;-33.872;151.172;2022-10-16T16:11:25;26.67;;;4.45;;